This is the latest recevied weather packets stored in our database for station/object KE4ODN. If no packets are shown the sender has not sent any weather packets the latest 10 day(s).
| Time | Temp. | Humidity | Pressure | Rain* | Wind** | Luminosity | Snow |
|---|---|---|---|---|---|---|---|
| 1777498564 | 25° C | 84% | 1010.3 hPa | 0 mm | - | 128 W/m² | - |
| 1777497604 | 25.56° C | 82% | 1010.2 hPa | 0 mm | - | 258 W/m² | - |
| 1777496404 | 25.56° C | 83% | 1010.4 hPa | 0 mm | - | 181 W/m² | - |
| 1777495684 | 25.56° C | 84% | 1010.6 hPa | 0 mm | - | 262 W/m² | - |
| 1777494724 | 25° C | 85% | 1011 hPa | 0 mm | - | 199 W/m² | - |
| 1777493044 | 25.56° C | 81% | 1011.2 hPa | 0 mm | - | 195 W/m² | - |
| 1777490644 | 26.11° C | 82% | 1011.4 hPa | 0 mm | - | 896 W/m² | - |
| 1777490404 | 25.56° C | 83% | 1011.4 hPa | 0 mm | - | 325 W/m² | - |
| 1777489444 | 24.44° C | 83% | 1012 hPa | 0 mm | - | 336 W/m² | - |
| 1777488244 | 25.56° C | 80% | 1012.3 hPa | 0 mm | - | 914 W/m² | - |
| 1777487305 | 24.44° C | 85% | 1012.6 hPa | 0 mm | - | 229 W/m² | - |
| 1777485364 | 23.89° C | 86% | 1013 hPa | 0 mm | - | 209 W/m² | - |
| 1777484884 | 23.89° C | 86% | 1013 hPa | 0 mm | - | 204 W/m² | - |
| 1777484404 | 23.89° C | 85% | 1013 hPa | 0 mm | - | 190 W/m² | - |
| 1777484164 | 23.89° C | 86% | 1012.9 hPa | 0 mm | - | 394 W/m² | - |
| 1777482244 | 23.89° C | 88% | 1013.4 hPa | 0 mm | - | 867 W/m² | - |
| 1777481764 | 23.33° C | 88% | 1013.5 hPa | 0 mm | - | 355 W/m² | - |
| 1777480324 | 22.78° C | 89% | 1013.8 hPa | 0 mm | - | 146 W/m² | - |
| 1777479364 | 22.78° C | 89% | 1013.8 hPa | 0 mm | - | 158 W/m² | - |
| 1777478884 | 22.78° C | 90% | 1013.6 hPa | 0 mm | - | 276 W/m² | - |
| 1777477225 | 22.78° C | 92% | 1013.6 hPa | 0 mm | - | 229 W/m² | - |
| 1777476745 | 22.22° C | 91% | 1013.5 hPa | 0 mm | - | 134 W/m² | - |
| 1777476244 | 22.22° C | 93% | 1013.6 hPa | 0 mm | - | 172 W/m² | - |
| 1777475545 | 22.22° C | 92% | 1013.9 hPa | 0 mm | - | 144 W/m² | - |
| 1777473124 | 20.56° C | 96% | 1014.1 hPa | 0 mm | - | 181 W/m² | - |
* Rain latest hour (hover to see other rain measurements)
** Current wind speed in m/s (hover to see current wind gust speed)